Time;durP1;ratioP1;P1;durP2;ratioP2;P2;SDS_P1;SDS_P2;PMS_P1;PMS_P2;Temp;Humidity;BMP_temperature;BMP_pressure;BME280_temperature;BME280_humidity;BME280_pressure;Samples;Min_cycle;Max_cycle;Signal;HPM_P1;HPM_P2
2021/12/04 00:01:10;;;;;;;10.20;5.80;;;;;;;-0.60;59.54;99638.06;103452;1316;25275;-82
2021/12/04 00:03:41;;;;;;;10.20;5.90;;;;;;;-0.62;59.53;99644.24;103395;1320;26258;-80
2021/12/04 00:06:18;;;;;;;9.80;5.70;;;;;;;-0.65;59.65;99643.98;103219;1319;22597;-81
2021/12/04 00:08:46;;;;;;;11.30;6.80;;;;;;;-0.66;59.69;99637.22;102759;1327;22637;-81
2021/12/04 00:11:14;;;;;;;13.80;7.20;;;;;;;-0.68;59.85;99636.85;102738;1326;22580;-83
2021/12/04 00:13:42;;;;;;;16.20;7.30;;;;;;;-0.69;59.91;99639.58;102939;1325;25976;-83
2021/12/04 00:16:11;;;;;;;10.00;6.40;;;;;;;-0.72;59.95;99640.36;103293;1326;22591;-81
2021/12/04 00:18:38;;;;;;;13.60;7.40;;;;;;;-0.73;60.09;99641.56;103499;1324;25265;-82
2021/12/04 00:21:05;;;;;;;14.30;7.50;;;;;;;-0.78;60.13;99643.88;103192;1319;22562;-82
2021/12/04 00:23:32;;;;;;;11.70;7.20;;;;;;;-0.79;60.27;99646.92;102667;1327;25528;-83
2021/12/04 00:25:59;;;;;;;14.40;7.60;;;;;;;-0.78;60.25;99647.49;102751;1326;24252;-82
2021/12/04 00:28:26;;;;;;;17.60;7.80;;;;;;;-0.79;60.29;99647.80;103471;1319;22607;-83
2021/12/04 00:30:54;;;;;;;13.10;8.20;;;;;;;-0.80;60.44;99644.86;103189;1319;25393;-79
2021/12/04 00:33:26;;;;;;;12.70;7.40;;;;;;;-0.78;60.37;99645.23;103229;1320;22577;-84
2021/12/04 00:35:58;;;;;;;27.20;8.20;;;;;;;-0.80;60.43;99640.19;103173;1316;25492;-82
2021/12/04 00:49:28;;;;;;;14.30;6.80;;;;;;;-0.71;60.70;99631.58;103455;1316;24238;-87
2021/12/04 00:51:55;;;;;;;11.20;7.00;;;;;;;-0.68;60.34;99629.74;103403;1317;22581;-88
2021/12/04 00:54:25;;;;;;;11.90;5.80;;;;;;;-0.71;60.32;99620.84;103397;1319;22639;-87
2021/12/04 00:56:53;;;;;;;11.40;6.80;;;;;;;-0.71;60.60;99622.21;103603;1319;22606;-88
2021/12/04 00:59:21;;;;;;;13.30;7.50;;;;;;;-0.66;60.56;99618.36;103300;1319;22639;-86
2021/12/04 01:01:48;;;;;;;11.90;7.20;;;;;;;-0.63;60.46;99615.85;103335;1319;25392;-87
2021/12/04 01:04:19;;;;;;;12.30;6.80;;;;;;;-0.64;60.21;99613.92;103346;1319;26549;-87
2021/12/04 01:06:46;;;;;;;10.00;6.20;;;;;;;-0.64;60.35;99600.42;103314;1319;24328;-87
2021/12/04 01:09:15;;;;;;;12.60;7.00;;;;;;;-0.66;60.36;99600.91;103314;1319;22614;-89
2021/12/04 01:11:44;;;;;;;11.70;7.50;;;;;;;-0.64;60.35;99600.60;103673;1316;24245;-85
2021/12/04 01:14:13;;;;;;;15.90;7.40;;;;;;;-0.65;60.33;99599.37;103701;1319;25403;-88
2021/12/04 01:16:41;;;;;;;13.90;7.30;;;;;;;-0.62;60.35;99598.23;103474;1319;26733;-84
2021/12/04 01:19:08;;;;;;;9.20;5.30;;;;;;;-0.64;60.11;99591.79;103636;1320;22599;-83
2021/12/04 01:21:36;;;;;;;17.60;9.60;;;;;;;-0.69;60.11;99582.67;103477;1317;22568;-83
2021/12/04 01:24:03;;;;;;;14.40;7.20;;;;;;;-0.71;60.24;99575.70;103354;1319;22616;-83
2021/12/04 01:26:30;;;;;;;14.60;8.50;;;;;;;-0.72;60.29;99573.10;103579;1319;22524;-90
2021/12/04 01:28:57;;;;;;;10.80;6.80;;;;;;;-0.71;60.28;99571.05;103781;1319;23932;-85
2021/12/04 01:31:24;;;;;;;13.80;7.60;;;;;;;-0.69;60.30;99569.20;103793;1313;22762;-84
2021/12/04 01:33:52;;;;;;;15.00;8.50;;;;;;;-0.66;60.36;99572.20;103754;1319;24394;-88
2021/12/04 01:36:19;;;;;;;13.60;7.70;;;;;;;-0.64;60.01;99566.04;103715;1319;23831;-85
2021/12/04 01:38:47;;;;;;;9.80;6.10;;;;;;;-0.68;60.03;99558.48;103830;1317;25248;-83
2021/12/04 01:41:14;;;;;;;12.80;8.10;;;;;;;-0.68;60.01;99561.42;103541;1319;23739;-84
2021/12/04 01:43:41;;;;;;;13.10;8.00;;;;;;;-0.70;60.11;99562.59;103768;1317;24250;-84
2021/12/04 01:46:09;;;;;;;11.50;7.10;;;;;;;-0.65;60.34;99557.20;104002;1319;26731;-84
2021/12/04 01:48:36;;;;;;;13.10;7.00;;;;;;;-0.57;60.28;99553.55;104187;1319;23155;-85
2021/12/04 01:51:03;;;;;;;12.90;7.60;;;;;;;-0.51;60.28;99556.10;103946;1319;22731;-84
2021/12/04 01:53:31;;;;;;;14.30;7.40;;;;;;;-0.48;60.07;99554.45;103751;1319;25638;-81
2021/12/04 01:55:59;;;;;;;13.30;7.50;;;;;;;-0.45;60.02;99553.13;103447;1320;25262;-80
2021/12/04 01:58:28;;;;;;;15.70;8.30;;;;;;;-0.43;59.91;99555.25;103428;1320;22622;-81
2021/12/04 02:00:57;;;;;;;13.90;8.30;;;;;;;-0.44;59.73;99557.11;103476;1320;24388;-82
2021/12/04 02:03:25;;;;;;;15.40;8.20;;;;;;;-0.49;59.87;99559.09;103670;1319;24392;-80
2021/12/04 02:05:52;;;;;;;11.20;7.30;;;;;;;-0.54;60.04;99556.23;103785;1320;22574;-80
2021/12/04 02:08:23;;;;;;;13.10;7.80;;;;;;;-0.53;59.90;99554.17;103887;1320;22531;-80
2021/12/04 02:10:54;;;;;;;14.20;7.80;;;;;;;-0.57;60.03;99552.17;103857;1320;22572;-80
2021/12/04 02:13:21;;;;;;;13.60;8.60;;;;;;;-0.57;60.12;99547.16;103436;1320;22565;-82
2021/12/04 02:15:49;;;;;;;13.40;8.60;;;;;;;-0.59;60.02;99539.84;103591;1319;23721;-85
2021/12/04 02:18:18;;;;;;;14.40;8.60;;;;;;;-0.61;60.04;99526.85;103611;1316;24241;-83
2021/12/04 02:20:45;;;;;;;15.20;9.00;;;;;;;-0.63;60.04;99523.34;104458;1320;22576;-83
2021/12/04 02:23:14;;;;;;;15.00;7.80;;;;;;;-0.61;60.04;99528.21;104711;1316;22562;-82
2021/12/04 02:25:42;;;;;;;15.00;7.60;;;;;;;-0.61;60.12;99534.62;104655;1320;22902;-83
2021/12/04 02:28:11;;;;;;;13.60;8.40;;;;;;;-0.61;59.92;99525.77;104127;1316;23968;-83
2021/12/04 02:30:43;;;;;;;16.30;9.30;;;;;;;-0.62;60.00;99529.05;104173;1320;22554;-81
2021/12/04 02:33:14;;;;;;;17.30;10.00;;;;;;;-0.67;60.00;99527.39;104681;1324;22602;-85
2021/12/04 02:35:45;;;;;;;16.30;9.50;;;;;;;-0.71;60.10;99522.63;104670;1322;25445;-85
2021/12/04 02:38:13;;;;;;;13.90;8.40;;;;;;;-0.66;60.19;99521.53;104143;1322;25275;-82
2021/12/04 02:40:43;;;;;;;14.50;8.30;;;;;;;-0.65;60.32;99522.08;102925;1322;22582;-83
2021/12/04 02:43:11;;;;;;;16.10;9.20;;;;;;;-0.63;60.33;99517.27;103018;1323;22580;-81
2021/12/04 02:45:38;;;;;;;18.20;9.50;;;;;;;-0.59;60.41;99515.64;103066;1325;25298;-81
2021/12/04 02:48:05;;;;;;;13.10;8.20;;;;;;;-0.61;60.15;99516.45;103323;1325;23259;-81
2021/12/04 02:50:32;;;;;;;16.70;9.20;;;;;;;-0.67;60.21;99508.02;103733;1320;22849;-86
2021/12/04 02:52:59;;;;;;;18.50;8.80;;;;;;;-0.67;60.37;99507.50;103705;1319;26001;-80
2021/12/04 02:55:26;;;;;;;14.20;7.90;;;;;;;-0.66;60.46;99501.80;104126;1319;25255;-82
2021/12/04 02:57:56;;;;;;;17.10;9.20;;;;;;;-0.68;60.38;99495.38;104349;1319;25394;-86
2021/12/04 03:00:25;;;;;;;22.50;11.30;;;;;;;-0.72;60.29;99493.38;106037;1319;22518;-83
2021/12/04 03:02:55;;;;;;;17.00;9.90;;;;;;;-0.81;60.54;99500.27;105869;1319;22560;-85
2021/12/04 03:05:29;;;;;;;18.40;10.90;;;;;;;-0.80;60.74;99499.63;103876;1313;24106;-83
2021/12/04 03:07:58;;;;;;;22.70;11.30;;;;;;;-0.79;60.81;99499.27;103503;1319;24278;-83
2021/12/04 03:10:26;;;;;;;19.90;10.60;;;;;;;-0.89;60.61;99497.86;103326;1319;24686;-82
2021/12/04 03:12:53;;;;;;;18.60;11.00;;;;;;;-0.93;60.84;99497.94;103479;1319;25545;-83
2021/12/04 03:15:21;;;;;;;19.10;10.60;;;;;;;-0.97;60.93;99493.00;103400;1319;24218;-83
2021/12/04 03:17:50;;;;;;;18.70;10.30;;;;;;;-0.94;61.25;99495.83;103609;1313;22593;-84
2021/12/04 03:20:18;;;;;;;17.20;10.70;;;;;;;-0.86;61.34;99497.74;103558;1319;22551;-83
2021/12/04 03:22:47;;;;;;;19.30;12.20;;;;;;;-0.82;61.23;99493.17;103652;1318;22640;-82
2021/12/04 03:25:16;;;;;;;21.20;11.40;;;;;;;-0.78;61.24;99491.52;103504;1318;23735;-83
2021/12/04 03:27:47;;;;;;;16.80;9.80;;;;;;;-0.72;61.19;99489.57;103217;1320;24241;-82
2021/12/04 03:31:06;;;;;;;20.00;9.90;;;;;;;-0.79;60.91;99483.04;103328;1320;25278;-83
2021/12/04 03:41:06;;;;;;;23.10;12.60;;;;;;;-0.87;61.46;99465.39;103387;1320;22567;-81
2021/12/04 03:43:34;;;;;;;22.00;12.70;;;;;;;-0.88;61.45;99458.98;103404;1319;24339;-81
2021/12/04 03:46:03;;;;;;;21.80;12.40;;;;;;;-0.93;61.52;99454.38;103802;1319;22631;-82
2021/12/04 03:51:02;;;;;;;17.60;11.10;;;;;;;-0.89;61.84;99449.95;106453;1318;22593;-85
2021/12/04 03:53:30;;;;;;;22.60;12.50;;;;;;;-0.84;61.86;99441.26;105894;1318;25398;-83
2021/12/04 03:55:57;;;;;;;21.40;12.20;;;;;;;-0.81;61.87;99437.52;105352;1319;22911;-91
2021/12/04 03:58:24;;;;;;;18.10;11.60;;;;;;;-0.78;61.82;99438.11;103141;1318;22604;-81
2021/12/04 04:00:52;;;;;;;27.30;14.30;;;;;;;-0.74;61.72;99439.91;102635;1325;22537;-81
2021/12/04 04:03:20;;;;;;;20.80;12.00;;;;;;;-0.68;61.91;99444.20;102669;1325;23874;-81
2021/12/04 04:05:47;;;;;;;26.30;15.60;;;;;;;-0.63;61.83;99443.08;103016;1325;22588;-80
2021/12/04 04:08:15;;;;;;;28.10;14.10;;;;;;;-0.60;61.64;99442.96;104143;1324;23949;-82
2021/12/04 04:10:43;;;;;;;20.30;12.70;;;;;;;-0.63;61.67;99431.32;102762;1325;23462;-82
2021/12/04 04:13:12;;;;;;;23.20;12.70;;;;;;;-0.56;61.71;99435.98;102475;1322;22675;-81
2021/12/04 04:15:40;;;;;;;21.30;11.70;;;;;;;-0.54;61.63;99433.76;102617;1325;25448;-82
2021/12/04 04:18:08;;;;;;;24.00;13.10;;;;;;;-0.53;61.61;99432.39;103273;1319;22636;-80
2021/12/04 04:20:35;;;;;;;23.00;12.20;;;;;;;-0.53;61.64;99436.02;103058;1320;22635;-81
2021/12/04 04:23:03;;;;;;;21.10;12.80;;;;;;;-0.54;61.66;99434.80;103724;1320;22609;-79
2021/12/04 04:25:30;;;;;;;27.10;13.40;;;;;;;-0.55;61.63;99428.04;105675;1322;22583;-77
2021/12/04 04:27:57;;;;;;;19.70;11.80;;;;;;;-0.60;61.64;99421.02;105823;1316;23044;-79
2021/12/04 04:30:24;;;;;;;22.80;13.10;;;;;;;-0.59;61.91;99417.92;105926;1320;22674;-77
2021/12/04 04:32:52;;;;;;;26.20;14.30;;;;;;;-0.52;61.92;99413.38;105757;1320;22974;-78
2021/12/04 04:35:25;;;;;;;27.60;14.20;;;;;;;-0.49;61.66;99411.02;105515;1316;22719;-78
2021/12/04 05:10:54;;;;;;;25.90;13.50;;;;;;;-0.82;62.50;99392.02;102586;1325;25341;-80
2021/12/04 05:13:22;;;;;;;22.10;11.80;;;;;;;-0.73;62.73;99389.09;102335;1328;24260;-81
2021/12/04 05:20:52;;;;;;;23.80;11.80;;;;;;;-0.54;62.32;99385.51;102774;1328;22601;-79
2021/12/04 05:23:21;;;;;;;20.10;11.60;;;;;;;-0.58;62.28;99381.95;102698;1326;24290;-81
2021/12/04 05:25:50;;;;;;;17.60;10.50;;;;;;;-0.55;62.56;99379.09;102707;1328;24543;-81
2021/12/04 05:28:17;;;;;;;22.90;12.50;;;;;;;-0.55;62.40;99381.52;102496;1323;240312;-81
2021/12/04 05:30:44;;;;;;;19.20;11.20;;;;;;;-0.48;62.52;99379.03;102961;1317;25570;-81
2021/12/04 05:33:11;;;;;;;21.60;12.00;;;;;;;-0.42;62.43;99374.31;104049;1319;22947;-83
2021/12/04 05:35:38;;;;;;;17.30;10.50;;;;;;;-0.39;62.36;99372.64;105009;1319;25268;-81
2021/12/04 05:38:06;;;;;;;21.50;11.90;;;;;;;-0.39;62.06;99372.83;103602;1316;23336;-84
2021/12/04 05:40:33;;;;;;;17.30;9.20;;;;;;;-0.40;62.03;99371.41;103532;1317;22588;-81
2021/12/04 05:43:02;;;;;;;18.70;10.60;;;;;;;-0.44;62.07;99367.00;103833;1319;24341;-84
2021/12/04 05:45:34;;;;;;;19.50;10.50;;;;;;;-0.48;62.09;99367.96;103504;1318;22586;-79
2021/12/04 05:48:07;;;;;;;18.00;10.50;;;;;;;-0.54;62.25;99362.49;103700;1319;23937;-85
2021/12/04 05:55:56;;;;;;;21.20;12.20;;;;;;;-0.46;62.31;99355.38;103749;1317;25258;-82
2021/12/04 05:58:28;;;;;;;21.60;11.30;;;;;;;-0.47;62.23;99355.17;104052;1319;22780;-83
2021/12/04 06:00:58;;;;;;;18.70;9.50;;;;;;;-0.44;62.47;99344.35;104281;1319;22591;-82
2021/12/04 06:03:26;;;;;;;17.80;8.80;;;;;;;-0.38;62.48;99345.50;103764;1319;25294;-82
2021/12/04 06:05:53;;;;;;;14.00;8.50;;;;;;;-0.33;62.34;99344.21;103922;1319;23934;-84
2021/12/04 06:08:20;;;;;;;15.10;9.20;;;;;;;-0.29;62.31;99345.83;103955;1319;24301;-83
2021/12/04 06:10:49;;;;;;;16.50;10.00;;;;;;;-0.23;62.09;99346.11;104640;1317;23470;-82
2021/12/04 06:13:17;;;;;;;17.30;10.20;;;;;;;-0.20;62.05;99340.80;103836;1320;23961;-83
2021/12/04 06:15:44;;;;;;;16.10;9.30;;;;;;;-0.21;61.82;99345.27;103250;1320;23943;-86
2021/12/04 06:18:13;;;;;;;17.10;10.20;;;;;;;-0.36;61.78;99341.04;103210;1320;24141;-84
2021/12/04 06:23:26;;;;;;;14.20;9.00;;;;;;;-0.30;61.97;99354.27;102761;1326;22581;-84
2021/12/04 06:25:54;;;;;;;12.80;8.10;;;;;;;-0.28;62.12;99355.88;102585;1326;22620;-86
2021/12/04 06:28:21;;;;;;;16.60;9.60;;;;;;;-0.31;61.76;99357.21;102582;1325;25363;-87
2021/12/04 06:30:49;;;;;;;16.90;9.50;;;;;;;-0.35;61.91;99363.19;102662;1325;24290;-83
2021/12/04 06:33:17;;;;;;;16.60;10.10;;;;;;;-0.39;62.02;99363.64;102622;1328;25634;-83
2021/12/04 06:35:46;;;;;;;10.30;6.30;;;;;;;-0.34;62.21;99372.56;102576;1328;25395;-82
2021/12/04 06:38:17;;;;;;;14.00;9.10;;;;;;;-0.33;61.99;99374.13;102485;1328;24297;-82
2021/12/04 06:40:47;;;;;;;13.80;9.10;;;;;;;-0.33;62.15;99369.80;101879;1331;22684;-80
2021/12/04 06:43:15;;;;;;;16.40;9.60;;;;;;;-0.27;62.12;99374.59;102539;1329;25338;-83
2021/12/04 06:45:44;;;;;;;16.90;8.50;;;;;;;-0.20;61.99;99375.40;102604;1329;25350;-85
2021/12/04 06:48:17;;;;;;;15.10;8.90;;;;;;;-0.17;62.13;99371.15;102539;1329;22610;-83
2021/12/04 06:50:57;;;;;;;14.80;8.00;;;;;;;-0.08;62.17;99368.52;102825;1327;22596;-83
2021/12/04 06:56:00;;;;;;;12.70;7.40;;;;;;;0.09;61.89;99364.84;102906;1326;22593;-83
2021/12/04 06:58:28;;;;;;;16.60;8.80;;;;;;;0.14;61.67;99366.98;103595;1322;22599;-83
2021/12/04 07:00:57;;;;;;;13.80;8.70;;;;;;;0.14;61.39;99365.95;103895;1320;23212;-83
2021/12/04 07:03:25;;;;;;;13.70;8.70;;;;;;;0.13;61.38;99368.54;103579;1320;26531;-81
2021/12/04 07:05:52;;;;;;;14.20;7.20;;;;;;;0.13;61.38;99366.80;104015;1316;22684;-79
2021/12/04 07:08:19;;;;;;;13.70;8.70;;;;;;;0.08;61.07;99368.27;103431;1319;25591;-82
2021/12/04 07:10:46;;;;;;;11.10;7.60;;;;;;;0.00;61.28;99364.86;103201;1320;24239;-81
2021/12/04 07:13:13;;;;;;;15.20;7.70;;;;;;;0.07;61.40;99369.65;103317;1320;22585;-81
2021/12/04 07:15:43;;;;;;;9.70;6.90;;;;;;;0.09;61.23;99370.20;103163;1320;25499;-81
2021/12/04 07:18:11;;;;;;;10.20;6.80;;;;;;;0.08;61.21;99365.00;103283;1320;25397;-83
2021/12/04 07:20:38;;;;;;;12.60;7.40;;;;;;;0.13;61.18;99365.40;103743;1319;22573;-81
2021/12/04 07:23:05;;;;;;;12.80;6.60;;;;;;;0.08;60.97;99364.83;103832;1318;24236;-81
2021/12/04 07:25:32;;;;;;;13.40;6.70;;;;;;;0.11;61.30;99363.65;104036;1316;25402;-81
2021/12/04 07:27:59;;;;;;;13.90;7.70;;;;;;;0.21;61.42;99365.55;103810;1319;23980;-81
2021/12/04 07:30:26;;;;;;;15.30;7.50;;;;;;;0.28;61.21;99370.51;103568;1319;22577;-81
2021/12/04 07:32:54;;;;;;;11.00;7.00;;;;;;;0.37;61.28;99370.83;103741;1318;25394;-81
2021/12/04 07:35:21;;;;;;;12.60;6.70;;;;;;;0.48;61.26;99366.48;103371;1320;26564;-82
2021/12/04 07:37:48;;;;;;;8.80;6.80;;;;;;;0.59;61.02;99366.83;103338;1319;22634;-89
2021/12/04 07:40:19;;;;;;;11.10;7.40;;;;;;;0.63;60.69;99368.45;103326;1319;24473;-83
2021/12/04 07:42:47;;;;;;;20.00;8.20;;;;;;;0.63;60.50;99368.96;103230;1319;22587;-82
2021/12/04 07:45:14;;;;;;;12.00;6.80;;;;;;;0.66;60.51;99367.45;103365;1320;25866;-81
2021/12/04 07:47:41;;;;;;;12.20;7.10;;;;;;;0.67;60.23;99363.66;103318;1320;25328;-83
2021/12/04 07:50:10;;;;;;;12.00;7.20;;;;;;;0.67;60.28;99364.01;103390;1316;25429;-82
2021/12/04 07:52:38;;;;;;;10.70;6.90;;;;;;;0.70;60.25;99363.52;103512;1320;22574;-82
2021/12/04 07:55:07;;;;;;;13.80;7.10;;;;;;;0.69;60.23;99360.92;103488;1320;22727;-84
2021/12/04 07:57:35;;;;;;;10.40;7.30;;;;;;;0.76;60.35;99362.38;103579;1319;25255;-80
2021/12/04 08:00:08;;;;;;;10.30;6.80;;;;;;;0.79;60.13;99364.34;103617;1319;23142;-83
2021/12/04 08:02:36;;;;;;;8.80;5.80;;;;;;;0.80;60.14;99363.48;103438;1319;22575;-81
2021/12/04 08:05:04;;;;;;;9.70;6.40;;;;;;;0.82;59.97;99362.99;103878;1319;23952;-85
2021/12/04 08:07:31;;;;;;;12.70;7.20;;;;;;;0.87;60.18;99358.71;104107;1317;22819;-85
2021/12/04 08:09:58;;;;;;;12.30;6.70;;;;;;;0.96;60.00;99361.62;103984;1319;22648;-85
2021/12/04 08:12:26;;;;;;;12.90;7.40;;;;;;;1.01;59.65;99361.86;103391;1319;25956;-86
2021/12/04 08:14:54;;;;;;;12.40;7.20;;;;;;;1.02;59.73;99362.21;103371;1319;22938;-86
2021/12/04 08:17:21;;;;;;;10.20;6.80;;;;;;;1.10;59.74;99355.20;103520;1318;22613;-85
2021/12/04 08:19:48;;;;;;;10.20;7.20;;;;;;;1.14;59.54;99350.41;103333;1319;24238;-82
2021/12/04 08:22:15;;;;;;;12.70;7.90;;;;;;;1.16;59.47;99351.63;103398;1317;22710;-82
2021/12/04 08:24:45;;;;;;;11.10;7.50;;;;;;;1.20;59.63;99352.39;103250;1320;22586;-81
2021/12/04 08:27:12;;;;;;;10.80;7.10;;;;;;;1.21;59.68;99352.58;103534;1318;22716;-81
2021/12/04 08:29:39;;;;;;;9.50;7.10;;;;;;;1.21;59.68;99346.33;103533;1319;24288;-81
2021/12/04 08:32:07;;;;;;;11.50;6.80;;;;;;;1.24;59.77;99348.45;103454;1319;23259;-81
2021/12/04 08:34:35;;;;;;;12.60;7.90;;;;;;;1.24;59.94;99341.34;103532;1318;25268;-82
2021/12/04 08:37:03;;;;;;;8.50;6.20;;;;;;;1.23;59.77;99347.58;103458;1319;22639;-81
2021/12/04 08:39:31;;;;;;;10.20;6.80;;;;;;;1.21;59.72;99347.03;103333;1319;22913;-83
2021/12/04 08:41:59;;;;;;;9.20;6.40;;;;;;;1.18;59.57;99337.62;103505;1317;22602;-83
2021/12/04 08:44:26;;;;;;;13.40;6.50;;;;;;;1.20;59.82;99338.34;103267;1319;22613;-80
2021/12/04 08:46:53;;;;;;;13.30;7.00;;;;;;;1.28;59.73;99333.23;102814;1322;25271;-81
2021/12/04 08:49:20;;;;;;;10.30;7.10;;;;;;;1.36;59.67;99335.57;103056;1325;25277;-81
2021/12/04 08:51:47;;;;;;;10.10;5.90;;;;;;;1.42;59.40;99324.19;102927;1325;22597;-80
2021/12/04 08:54:14;;;;;;;9.70;6.70;;;;;;;1.43;59.18;99317.42;102563;1328;25265;-85
2021/12/04 08:56:42;;;;;;;6.50;4.80;;;;;;;1.42;59.06;99320.03;102258;1329;25405;-82
2021/12/04 08:59:09;;;;;;;10.50;7.20;;;;;;;1.38;58.92;99325.02;102691;1329;22689;-84
2021/12/04 09:01:40;;;;;;;9.50;6.50;;;;;;;1.37;59.19;99325.17;102447;1330;22609;-83
2021/12/04 09:04:17;;;;;;;12.80;6.80;;;;;;;1.46;59.10;99320.93;102706;1329;22627;-83
2021/12/04 09:06:45;;;;;;;8.70;6.30;;;;;;;1.43;58.72;99325.92;102697;1325;24333;-83
2021/12/04 09:09:15;;;;;;;8.20;5.90;;;;;;;1.41;58.80;99329.05;102976;1324;24303;-83
2021/12/04 09:11:54;;;;;;;9.60;7.00;;;;;;;1.41;58.57;99326.94;103143;1320;24333;-83
2021/12/04 09:14:24;;;;;;;10.10;6.50;;;;;;;1.38;58.41;99326.40;102844;1326;22601;-83
2021/12/04 09:16:54;;;;;;;11.30;6.60;;;;;;;1.31;57.99;99320.60;102820;1326;22597;-82
2021/12/04 09:19:22;;;;;;;8.60;6.20;;;;;;;1.20;58.11;99313.20;102787;1327;22615;-83
2021/12/04 09:21:52;;;;;;;11.50;6.80;;;;;;;1.23;58.18;99314.25;102756;1328;22732;-88
2021/12/04 09:24:25;;;;;;;11.50;7.10;;;;;;;1.23;58.39;99311.84;103041;1326;25287;-83
2021/12/04 10:35:08;;;;;;;10.80;6.30;;;;;;;1.67;58.08;99265.94;103521;1319;23231;-84
2021/12/04 10:38:06;;;;;;;9.60;6.70;;;;;;;1.77;58.29;99265.34;104029;1319;22589;-85
2021/12/04 10:40:46;;;;;;;10.30;6.50;;;;;;;1.80;57.81;99261.55;103620;1319;22660;-82
2021/12/04 10:43:17;;;;;;;17.30;7.20;;;;;;;1.86;57.74;99257.60;103722;1316;23974;-83
2021/12/04 10:45:51;;;;;;;8.80;6.40;;;;;;;1.98;57.74;99254.05;103754;1319;24192;-82
2021/12/04 10:48:24;;;;;;;8.60;5.80;;;;;;;2.10;57.72;99253.45;103780;1319;22932;-82
2021/12/04 10:51:49;;;;;;;9.50;6.20;;;;;;;2.21;57.50;99251.44;104396;1319;24254;-82
2021/12/04 10:53:56;;;;;;;10.10;7.10;;;;;;;2.30;56.75;99246.62;104462;1319;22571;-82
2021/12/04 10:57:33;;;;;;;10.00;6.20;;;;;;;2.27;56.57;99244.70;104809;1319;22557;-83
2021/12/04 11:04:37;;;;;;;9.70;6.90;;;;;;;2.32;56.09;99241.59;104389;1318;25246;-83
2021/12/04 11:19:01;;;;;;;9.70;7.00;;;;;;;2.63;56.20;99225.25;104011;1319;24063;-81
2021/12/04 11:43:07;;;;;;;13.20;8.40;;;;;;;2.52;55.60;99227.98;103335;1319;24218;-82
2021/12/04 11:46:02;;;;;;;12.70;7.60;;;;;;;2.58;55.66;99223.48;103333;1319;22577;-82
2021/12/04 11:48:32;;;;;;;11.80;7.90;;;;;;;2.55;55.58;99223.83;103283;1319;25245;-83
2021/12/04 11:51:01;;;;;;;11.30;7.40;;;;;;;2.58;55.95;99223.83;103249;1319;25301;-83
2021/12/04 11:53:31;;;;;;;13.10;7.40;;;;;;;2.65;55.87;99225.26;103506;1317;25394;-83
2021/12/04 11:55:59;;;;;;;14.40;9.20;;;;;;;2.63;55.63;99228.04;103389;1319;22768;-84
2021/12/04 11:58:31;;;;;;;16.10;8.40;;;;;;;2.64;55.75;99224.20;103393;1319;22578;-83
2021/12/04 12:01:09;;;;;;;10.30;7.40;;;;;;;2.69;55.90;99225.95;103543;1319;24234;-83
2021/12/04 12:03:36;;;;;;;13.90;8.70;;;;;;;2.75;55.66;99222.17;103542;1319;24007;-86
2021/12/04 12:06:08;;;;;;;12.10;8.00;;;;;;;2.77;55.60;99219.39;103538;1317;23936;-78
2021/12/04 12:08:38;;;;;;;12.70;8.40;;;;;;;2.82;55.80;99217.16;103154;1319;23972;-78
2021/12/04 12:11:25;;;;;;;10.00;7.20;;;;;;;2.87;55.68;99211.42;103301;1319;26812;-78
2021/12/04 12:14:00;;;;;;;;;;;;;;;2.91;55.73;99215.09;103383;1319;22562;-83
2021/12/04 12:16:33;;;;;;;12.50;6.60;;;;;;;2.95;55.60;99215.27;103544;1317;22789;-78
2021/12/04 12:19:09;;;;;;;11.60;7.60;;;;;;;2.93;55.38;99212.84;102861;1322;22587;-78
2021/12/04 12:21:39;;;;;;;;;;;;;;;2.92;55.18;99214.92;102924;1325;25739;-80
2021/12/04 12:38:52;;;;;;;11.70;7.40;;;;;;;2.92;55.34;99209.89;103624;1317;22672;-77
2021/12/04 12:41:28;;;;;;;10.70;8.10;;;;;;;2.88;55.42;99207.26;103370;1313;26641;-83
2021/12/04 12:44:25;;;;;;;19.70;9.90;;;;;;;2.90;55.45;99208.48;103338;1316;22712;-79
2021/12/04 12:46:57;;;;;;;10.60;7.50;;;;;;;2.88;55.29;99209.34;103444;1313;25356;-78
2021/12/04 12:49:24;;;;;;;12.80;8.70;;;;;;;2.93;55.59;99209.02;103407;1319;23995;-77
2021/12/04 12:51:56;;;;;;;14.90;9.10;;;;;;;3.00;55.45;99203.64;103286;1313;22593;-79
2021/12/04 12:54:37;;;;;;;15.50;9.90;;;;;;;3.01;55.28;99203.81;103305;1319;25444;-77
2021/12/04 12:57:10;;;;;;;12.40;8.50;;;;;;;2.99;55.13;99205.55;103307;1318;22571;-77
2021/12/04 12:59:59;;;;;;;11.70;8.70;;;;;;;2.99;55.28;99206.08;103486;1317;22650;-76
2021/12/04 13:14:21;;;;;;;13.90;9.30;;;;;;;2.86;55.61;99198.22;103390;1320;22677;-78
2021/12/04 13:17:05;;;;;;;15.00;8.20;;;;;;;2.93;55.61;99198.23;103412;1319;24299;-79
2021/12/04 13:19:36;;;;;;;13.20;8.90;;;;;;;3.00;55.53;99194.42;103377;1320;24304;-77
2021/12/04 13:22:26;;;;;;;13.90;9.60;;;;;;;2.98;55.53;99189.90;103377;1315;22680;-78
2021/12/04 13:24:56;;;;;;;13.10;7.80;;;;;;;3.00;55.27;99196.86;103423;1319;22537;-82
2021/12/04 13:29:57;;;;;;;13.60;8.80;;;;;;;2.92;55.43;99195.98;103429;1319;22666;-81
2021/12/04 13:32:39;;;;;;;15.40;9.40;;;;;;;2.94;55.40;99197.37;103486;1319;24266;-77
2021/12/04 13:35:11;;;;;;;12.00;8.70;;;;;;;2.81;55.18;99202.89;103289;1318;23321;-77
2021/12/04 13:37:39;;;;;;;14.50;9.10;;;;;;;2.77;55.43;99198.89;103355;1319;25293;-79
2021/12/04 13:40:11;;;;;;;10.10;7.70;;;;;;;2.80;55.53;99198.71;103632;1319;22637;-77
2021/12/04 13:42:39;;;;;;;14.80;10.00;;;;;;;2.81;55.61;99200.28;103512;1318;25251;-80
2021/12/04 13:45:10;;;;;;;13.80;8.70;;;;;;;2.83;55.55;99202.73;103577;1318;22661;-77
2021/12/04 13:47:39;;;;;;;16.10;9.20;;;;;;;2.69;55.30;99197.80;103473;1319;22585;-79
2021/12/04 13:53:19;;;;;;;13.70;9.20;;;;;;;2.58;55.86;99201.05;103280;1319;25479;-79
2021/12/04 13:55:57;;;;;;;19.20;11.70;;;;;;;2.49;56.02;99203.98;104126;1319;22562;-80
2021/12/04 13:58:25;;;;;;;14.10;9.50;;;;;;;2.48;56.30;99208.49;103555;1319;22604;-80
2021/12/04 14:00:53;;;;;;;13.80;9.20;;;;;;;2.45;56.45;99203.44;103511;1319;24427;-78
2021/12/04 14:03:25;;;;;;;18.90;11.00;;;;;;;2.42;56.88;99204.99;103423;1319;25176;-83
2021/12/04 14:05:53;;;;;;;13.50;8.30;;;;;;;2.47;57.15;99206.92;103277;1319;22656;-81
2021/12/04 14:08:20;;;;;;;13.30;8.80;;;;;;;2.39;57.21;99206.90;103757;1318;22584;-78
2021/12/04 14:10:49;;;;;;;13.10;7.50;;;;;;;2.21;57.88;99209.56;103697;1319;25278;-79
2021/12/04 14:13:20;;;;;;;12.60;8.40;;;;;;;2.12;58.25;99206.03;103585;1319;25407;-80
2021/12/04 14:15:47;;;;;;;19.90;10.60;;;;;;;2.10;58.82;99215.77;103342;1316;25255;-80
2021/12/04 14:18:18;;;;;;;15.40;9.20;;;;;;;2.13;59.33;99214.21;103407;1319;22577;-80
2021/12/04 14:20:51;;;;;;;16.20;10.20;;;;;;;2.16;59.59;99215.98;103308;1319;22697;-80
2021/12/04 14:23:19;;;;;;;15.80;10.10;;;;;;;2.19;60.01;99215.81;103369;1319;22603;-81
2021/12/04 14:25:53;;;;;;;18.30;9.70;;;;;;;2.16;60.35;99215.80;103850;1319;22569;-79
2021/12/04 14:28:25;;;;;;;16.00;10.40;;;;;;;2.13;60.70;99219.42;104116;1312;22600;-80
2021/12/04 14:30:52;;;;;;;13.90;9.90;;;;;;;2.06;61.12;99215.38;104471;1319;22804;-78
2021/12/04 14:33:26;;;;;;;17.60;10.40;;;;;;;1.93;61.25;99218.07;104720;1319;24022;-79
2021/12/04 14:35:56;;;;;;;16.00;9.60;;;;;;;1.77;61.61;99216.74;103400;1319;23007;-80
2021/12/04 14:38:27;;;;;;;13.00;8.40;;;;;;;1.69;62.16;99221.55;103351;1318;24149;-80
2021/12/04 14:41:21;;;;;;;17.50;10.40;;;;;;;1.64;62.62;99226.35;103899;1319;25946;-80
2021/12/04 14:43:48;;;;;;;19.70;11.30;;;;;;;1.68;62.99;99221.17;103775;1319;23032;-79
2021/12/04 14:46:22;;;;;;;14.00;9.10;;;;;;;1.71;63.27;99225.72;103794;1319;22654;-78
2021/12/04 14:48:52;;;;;;;17.50;11.50;;;;;;;1.71;63.46;99228.50;103674;1319;25310;-78
2021/12/04 14:51:22;;;;;;;16.90;10.10;;;;;;;1.65;64.05;99228.79;103618;1319;24353;-80
2021/12/04 14:53:55;;;;;;;15.90;10.30;;;;;;;1.62;64.27;99223.91;103624;1319;25880;-79
2021/12/04 14:56:25;;;;;;;16.00;9.50;;;;;;;1.58;64.83;99227.52;103719;1318;22638;-79
2021/12/04 14:58:53;;;;;;;16.00;10.60;;;;;;;1.57;65.17;99232.02;104057;1316;22811;-80
2021/12/04 15:01:23;;;;;;;16.30;10.90;;;;;;;1.53;65.46;99228.17;103769;1313;25504;-81